createdAt,value
2022-07-29T00:00:49.644Z,99191.81
2022-07-29T00:03:18.264Z,99180.25
2022-07-29T00:05:48.364Z,99175.47
2022-07-29T00:08:17.241Z,99175.84
2022-07-29T00:10:45.983Z,99177.19
2022-07-29T00:13:14.597Z,99176.50
2022-07-29T00:15:43.181Z,99168.88
2022-07-29T00:18:11.785Z,99178.25
2022-07-29T00:20:40.753Z,99169.09
2022-07-29T00:23:13.487Z,99167.75
2022-07-29T00:25:42.390Z,99168.59
2022-07-29T00:28:11.011Z,99161.03
2022-07-29T00:30:39.707Z,99150.22
2022-07-29T00:33:09.321Z,99154.03
2022-07-29T00:35:46.091Z,99162.28
2022-07-29T00:38:17.949Z,99157.34
2022-07-29T00:40:47.031Z,99160.78
2022-07-29T00:43:16.975Z,99148.22
2022-07-29T00:45:45.796Z,99156.94
2022-07-29T00:48:14.525Z,99152.03
2022-07-29T00:50:43.727Z,99153.66
2022-07-29T00:53:14.283Z,99167.09
2022-07-29T00:55:44.259Z,99159.88
2022-07-29T00:58:14.290Z,99155.88
2022-07-29T01:00:45.634Z,99162.56
2022-07-29T01:03:14.334Z,99166.84
2022-07-29T01:05:50.842Z,99163.34
2022-07-29T01:08:21.949Z,99162.94
2022-07-29T01:10:53.426Z,99157.88
2022-07-29T01:13:23.732Z,99154.34
2022-07-29T01:15:58.922Z,99152.66
2022-07-29T01:18:34.093Z,99158.34
2022-07-29T01:21:23.726Z,99150.22
2022-07-29T01:24:08.961Z,99149.00
2022-07-29T01:26:47.214Z,99155.81
2022-07-29T01:29:27.398Z,99155.03
2022-07-29T01:32:10.015Z,99154.00
2022-07-29T01:35:02.158Z,99148.81
2022-07-29T01:37:35.439Z,99151.59
2022-07-29T01:40:07.007Z,99144.38
2022-07-29T01:42:40.671Z,99158.22
2022-07-29T01:45:16.581Z,99145.66
2022-07-29T01:47:48.635Z,99143.88
2022-07-29T01:50:19.570Z,99140.03
2022-07-29T01:52:54.719Z,99144.59
2022-07-29T01:55:24.915Z,99150.19
2022-07-29T01:57:53.903Z,99150.00
2022-07-29T02:00:25.372Z,99149.16
2022-07-29T02:02:56.213Z,99144.16
2022-07-29T02:05:27.791Z,99144.09
2022-07-29T02:07:59.971Z,99141.63
2022-07-29T02:10:31.872Z,99140.84
2022-07-29T02:13:02.577Z,99145.13
2022-07-29T02:15:34.782Z,99137.75
2022-07-29T02:18:07.372Z,99147.56
2022-07-29T02:20:36.972Z,99146.78
2022-07-29T02:23:06.532Z,99143.44
2022-07-29T02:25:38.049Z,99131.31
2022-07-29T02:28:08.522Z,99144.13
2022-07-29T02:30:42.626Z,99147.22
2022-07-29T02:33:14.258Z,99141.03
2022-07-29T02:35:44.984Z,99152.81
2022-07-29T02:38:34.673Z,99157.72
2022-07-29T02:41:07.763Z,99165.09
2022-07-29T02:43:37.565Z,99161.66
2022-07-29T02:46:28.623Z,99158.06
2022-07-29T02:49:04.076Z,99164.56
2022-07-29T02:51:44.852Z,99150.66
2022-07-29T02:54:26.660Z,99155.47
2022-07-29T02:56:57.766Z,99162.78
2022-07-29T02:59:29.685Z,99164.25
2022-07-29T03:02:02.138Z,99166.81
2022-07-29T03:04:34.406Z,99170.50
2022-07-29T03:07:04.189Z,99168.97
2022-07-29T03:09:33.745Z,99165.63
2022-07-29T03:12:02.894Z,99166.28
2022-07-29T03:14:33.413Z,99162.84
2022-07-29T03:17:04.631Z,99172.84
2022-07-29T03:19:33.885Z,99164.84
2022-07-29T03:22:02.943Z,99167.75
2022-07-29T03:24:33.603Z,99160.94
2022-07-29T03:27:02.638Z,99166.34
2022-07-29T03:29:33.543Z,99162.81
2022-07-29T03:32:08.153Z,99170.03
2022-07-29T03:34:39.279Z,99163.84
2022-07-29T03:37:08.660Z,99162.81
2022-07-29T03:39:42.576Z,99162.81
2022-07-29T03:42:15.718Z,99157.69
2022-07-29T03:44:47.828Z,99159.56
2022-07-29T03:47:23.215Z,99166.91
2022-07-29T03:50:16.249Z,99176.47
2022-07-29T03:52:45.372Z,99170.28
2022-07-29T03:55:15.669Z,99173.97
2022-07-29T03:57:46.506Z,99166.91
2022-07-29T04:00:16.932Z,99174.44
2022-07-29T04:02:49.470Z,99176.91
2022-07-29T04:05:19.813Z,99175.22
2022-07-29T04:07:50.261Z,99186.53
2022-07-29T04:10:30.679Z,99181.13
2022-07-29T04:13:00.671Z,99180.53
2022-07-29T04:15:31.485Z,99183.84
2022-07-29T04:18:02.055Z,99180.75
2022-07-29T04:20:30.724Z,99181.16
2022-07-29T04:22:59.293Z,99185.06
2022-07-29T04:25:29.094Z,99185.19
2022-07-29T04:28:03.801Z,99185.00
2022-07-29T04:30:33.724Z,99177.72
2022-07-29T04:33:06.366Z,99173.31
2022-07-29T04:35:38.156Z,99181.69
2022-07-29T04:38:15.495Z,99182.38
2022-07-29T04:40:47.184Z,99185.13
2022-07-29T04:43:22.621Z,99186.69
2022-07-29T04:45:52.311Z,99178.84
2022-07-29T04:48:28.192Z,99179.09
2022-07-29T04:50:57.737Z,99179.72
2022-07-29T04:53:27.815Z,99192.69
2022-07-29T04:55:56.445Z,99200.44
2022-07-29T04:58:25.556Z,99198.78
2022-07-29T05:00:54.131Z,99194.19
2022-07-29T05:03:24.168Z,99187.88
2022-07-29T05:05:52.749Z,99187.28
2022-07-29T05:08:21.279Z,99192.28
2022-07-29T05:10:49.825Z,99190.06
2022-07-29T05:13:18.361Z,99196.88
2022-07-29T05:15:47.133Z,99184.91
2022-07-29T05:18:15.786Z,99187.13
2022-07-29T05:20:46.187Z,99188.31
2022-07-29T05:23:15.607Z,99181.44
2022-07-29T05:25:45.013Z,99191.13
2022-07-29T05:28:14.092Z,99186.59
2022-07-29T05:30:43.391Z,99185.84
2022-07-29T05:33:34.884Z,99187.09
2022-07-29T05:36:02.404Z,99192.06
2022-07-29T05:38:31.128Z,99192.06
2022-07-29T05:41:00.787Z,99195.50
2022-07-29T05:43:29.715Z,99190.88
2022-07-29T05:45:58.707Z,99188.31
2022-07-29T05:48:27.370Z,99194.22
2022-07-29T05:50:56.630Z,99195.94
2022-07-29T05:53:26.653Z,99196.03
2022-07-29T05:55:55.662Z,99199.56
2022-07-29T05:58:24.330Z,99200.16
2022-07-29T06:00:55.896Z,99196.91
2022-07-29T06:03:25.742Z,99210.31
2022-07-29T06:05:54.527Z,99202.38
2022-07-29T06:08:23.100Z,99195.53
2022-07-29T06:10:53.022Z,99194.50
2022-07-29T06:13:21.541Z,99196.72
2022-07-29T06:15:50.491Z,99198.88
2022-07-29T06:18:19.216Z,99188.81
2022-07-29T06:20:50.178Z,99195.78
2022-07-29T06:23:19.227Z,99193.81
2022-07-29T06:25:48.041Z,99188.56
2022-07-29T06:28:18.144Z,99194.72
2022-07-29T06:30:47.031Z,99195.44
2022-07-29T06:33:19.655Z,99195.34
2022-07-29T06:35:54.992Z,99198.59
2022-07-29T06:38:31.686Z,99199.47
2022-07-29T06:41:04.725Z,99190.88
2022-07-29T06:43:50.325Z,99198.22
2022-07-29T06:46:21.189Z,99203.88
2022-07-29T06:48:50.512Z,99197.66
2022-07-29T06:51:22.833Z,99199.78
2022-07-29T06:53:59.791Z,99191.47
2022-07-29T06:56:31.818Z,99194.81
2022-07-29T06:59:01.875Z,99196.88
2022-07-29T07:01:30.817Z,99198.47
2022-07-29T07:03:59.577Z,99205.66
2022-07-29T07:06:28.525Z,99202.66
2022-07-29T07:08:57.434Z,99211.28
2022-07-29T07:11:26.063Z,99210.50
2022-07-29T07:13:58.046Z,99217.66
2022-07-29T07:16:30.829Z,99219.44
2022-07-29T07:18:59.844Z,99218.22
2022-07-29T07:21:30.212Z,99204.03
2022-07-29T07:23:59.840Z,99222.22
2022-07-29T07:26:29.367Z,99222.06
2022-07-29T07:29:01.289Z,99219.00
2022-07-29T07:31:31.347Z,99225.94
2022-07-29T07:34:00.041Z,99223.66
2022-07-29T07:36:28.605Z,99229.06
2022-07-29T07:38:57.205Z,99223.69
2022-07-29T07:41:25.819Z,99213.88
2022-07-29T07:43:54.463Z,99221.13
2022-07-29T07:46:23.136Z,99218.81
2022-07-29T07:48:53.821Z,99218.25
2022-07-29T07:51:22.504Z,99221.19
2022-07-29T07:53:51.298Z,99222.88
2022-07-29T07:56:20.047Z,99232.88
2022-07-29T07:58:48.725Z,99225.75
2022-07-29T08:01:20.002Z,99227.63
2022-07-29T08:03:49.041Z,99241.50
2022-07-29T08:06:19.016Z,99238.81
2022-07-29T08:08:47.552Z,99239.41
2022-07-29T08:11:16.288Z,99232.22
2022-07-29T08:13:44.939Z,99245.00
2022-07-29T08:16:14.101Z,99241.31
2022-07-29T08:18:44.212Z,99240.22
2022-07-29T08:21:15.227Z,99253.66
2022-07-29T08:23:58.470Z,99253.91
2022-07-29T08:26:28.579Z,99252.16
2022-07-29T08:28:57.138Z,99244.47
2022-07-29T08:31:25.824Z,99248.75
2022-07-29T08:34:11.413Z,99254.38
2022-07-29T08:36:40.352Z,99244.22
2022-07-29T08:39:10.463Z,99247.41
2022-07-29T08:41:39.183Z,99243.88
2022-07-29T08:44:07.823Z,99251.09
2022-07-29T08:46:39.759Z,99240.13
2022-07-29T08:49:09.282Z,99245.13
2022-07-29T08:51:49.186Z,99246.63
2022-07-29T08:54:23.341Z,99250.59
2022-07-29T08:56:54.919Z,99243.91
2022-07-29T08:59:27.675Z,99240.50
2022-07-29T09:01:56.848Z,99245.06
2022-07-29T09:04:28.992Z,99256.09
2022-07-29T09:07:02.669Z,99244.72
2022-07-29T09:09:33.727Z,99260.59
2022-07-29T09:12:04.927Z,99260.31
2022-07-29T09:14:33.530Z,99267.38
2022-07-29T09:17:03.076Z,99255.91
2022-07-29T09:19:33.768Z,99259.19
2022-07-29T09:22:05.189Z,99264.13
2022-07-29T09:24:43.348Z,99253.84
2022-07-29T09:27:21.987Z,99256.13
2022-07-29T09:29:59.445Z,99251.19
2022-07-29T09:32:29.101Z,99248.94
2022-07-29T09:35:16.539Z,99249.63
2022-07-29T09:37:45.527Z,99260.06
2022-07-29T09:40:17.901Z,99258.78
2022-07-29T09:42:47.174Z,99262.25
2022-07-29T09:45:31.232Z,99264.91
2022-07-29T09:48:03.794Z,99267.19
2022-07-29T09:50:40.853Z,99268.94
2022-07-29T09:53:11.363Z,99271.03
2022-07-29T09:55:51.940Z,99288.19
2022-07-29T09:58:22.222Z,99274.97
2022-07-29T10:00:53.113Z,99274.56
2022-07-29T10:03:22.740Z,99284.56
2022-07-29T10:06:07.817Z,99277.16
2022-07-29T10:08:37.086Z,99275.22
2022-07-29T10:11:14.993Z,99281.59
2022-07-29T10:13:45.222Z,99284.69
2022-07-29T10:16:14.910Z,99283.78
2022-07-29T10:18:45.609Z,99272.53
2022-07-29T10:21:35.154Z,99274.66
2022-07-29T10:24:04.219Z,99279.63
2022-07-29T10:26:34.429Z,99282.25
2022-07-29T10:29:03.059Z,99279.03
2022-07-29T10:31:39.317Z,99274.66
2022-07-29T10:34:21.502Z,99271.13
2022-07-29T10:36:58.861Z,99268.88
2022-07-29T10:39:44.602Z,99267.22
2022-07-29T10:42:29.530Z,99261.81
2022-07-29T10:45:05.706Z,99260.50
2022-07-29T10:47:35.218Z,99263.47
2022-07-29T10:50:06.063Z,99275.63
2022-07-29T10:52:58.631Z,99273.69
2022-07-29T10:55:35.729Z,99279.00
2022-07-29T10:58:20.914Z,99278.06
2022-07-29T11:00:51.836Z,99281.69
2022-07-29T11:03:49.432Z,99273.66
2022-07-29T11:06:26.444Z,99277.41
2022-07-29T11:12:48.800Z,99281.91
2022-07-29T11:15:21.977Z,99283.19
2022-07-29T11:18:15.042Z,99276.63
2022-07-29T11:20:48.221Z,99285.13
2022-07-29T11:23:25.460Z,99285.31
2022-07-29T11:26:18.768Z,99272.59
2022-07-29T11:28:58.364Z,99283.31
2022-07-29T11:31:39.863Z,99287.66
2022-07-29T11:34:30.299Z,99282.66
2022-07-29T11:37:27.768Z,99295.38
2022-07-29T11:40:18.422Z,99286.66
2022-07-29T11:42:52.162Z,99293.38
2022-07-29T11:45:43.577Z,99293.16
2022-07-29T11:48:29.367Z,99299.72
2022-07-29T11:51:13.307Z,99292.19
2022-07-29T11:53:42.095Z,99291.75
2022-07-29T11:56:11.345Z,99289.22
2022-07-29T11:58:46.708Z,99287.41
2022-07-29T12:01:16.172Z,99282.66
2022-07-29T12:03:46.254Z,99276.75
2022-07-29T12:06:18.378Z,99280.47
2022-07-29T12:08:47.972Z,99278.88
2022-07-29T12:11:20.810Z,99281.66
2022-07-29T12:13:50.915Z,99269.72
2022-07-29T12:16:25.390Z,99282.69
2022-07-29T12:19:00.547Z,99270.56
2022-07-29T12:21:31.222Z,99277.53
2022-07-29T12:24:08.862Z,99269.09
2022-07-29T12:26:38.019Z,99272.66
2022-07-29T12:29:14.767Z,99274.47
2022-07-29T12:31:45.286Z,99280.06
2022-07-29T12:34:17.822Z,99278.44
2022-07-29T12:36:46.660Z,99268.16
2022-07-29T12:39:15.664Z,99269.50
2022-07-29T12:41:44.275Z,99274.63
2022-07-29T12:44:13.458Z,99261.25
2022-07-29T12:46:42.098Z,99270.88
2022-07-29T12:49:10.799Z,99262.66
2022-07-29T12:51:42.255Z,99259.78
2022-07-29T12:54:12.564Z,99265.31
2022-07-29T12:56:43.531Z,99261.72
2022-07-29T12:59:18.615Z,99264.13
2022-07-29T13:01:50.032Z,99255.09
2022-07-29T13:04:29.019Z,99268.25
2022-07-29T13:07:04.834Z,99277.56
2022-07-29T13:09:41.952Z,99281.84
2022-07-29T13:12:12.015Z,99277.19
2022-07-29T13:14:42.229Z,99278.78
2022-07-29T13:17:13.046Z,99282.06
2022-07-29T13:19:43.949Z,99280.53
2022-07-29T13:48:04.229Z,99274.13
2022-07-29T13:50:36.966Z,99274.41
2022-07-29T13:53:06.286Z,99270.34
2022-07-29T13:55:35.551Z,99274.88
2022-07-29T13:58:04.663Z,99271.59
2022-07-29T14:00:33.451Z,99270.72
2022-07-29T14:03:03.963Z,99267.09
2022-07-29T14:05:33.471Z,99259.69
2022-07-29T14:08:04.094Z,99253.19
2022-07-29T14:10:33.265Z,99266.84
2022-07-29T14:13:02.426Z,99266.84
2022-07-29T14:15:32.198Z,99276.19
2022-07-29T14:18:01.068Z,99278.97
2022-07-29T14:20:30.798Z,99271.19
2022-07-29T14:22:59.612Z,99277.28
2022-07-29T14:25:30.428Z,99274.44
2022-07-29T14:27:59.182Z,99263.28
2022-07-29T14:30:28.182Z,99268.81
2022-07-29T14:32:57.168Z,99273.22
2022-07-29T14:35:26.240Z,99276.16
2022-07-29T14:37:55.277Z,99253.25
2022-07-29T14:40:24.530Z,99275.88
2022-07-29T14:42:54.902Z,99278.09
2022-07-29T14:45:24.099Z,99266.97
2022-07-29T14:47:56.526Z,99281.97
2022-07-29T14:50:31.288Z,99273.72
2022-07-29T14:53:01.266Z,99261.19
2022-07-29T14:55:30.401Z,99254.38
2022-07-29T14:58:09.806Z,99263.97
2022-07-29T15:00:41.016Z,99249.34
2022-07-29T15:03:11.583Z,99264.88
2022-07-29T15:05:40.808Z,99275.19
2022-07-29T15:08:10.175Z,99270.97
2022-07-29T15:10:39.337Z,99243.72
2022-07-29T15:13:10.734Z,99269.28
2022-07-29T15:15:40.474Z,99268.81
2022-07-29T15:18:10.348Z,99244.75
2022-07-29T15:20:39.425Z,99273.78
2022-07-29T15:23:10.974Z,99269.06
2022-07-29T15:25:40.332Z,99259.84
2022-07-29T15:28:12.232Z,99273.16
2022-07-29T15:30:42.654Z,99278.03
2022-07-29T15:33:11.933Z,99274.69
2022-07-29T15:35:43.997Z,99274.53
2022-07-29T15:38:13.914Z,99268.88
2022-07-29T15:40:44.499Z,99269.97
2022-07-29T15:43:15.108Z,99266.50
2022-07-29T15:46:06.428Z,99270.97
2022-07-29T15:48:35.507Z,99269.28
2022-07-29T15:51:04.656Z,99280.59
2022-07-29T15:53:35.284Z,99261.94
2022-07-29T15:56:25.874Z,99276.56
2022-07-29T15:58:55.909Z,99274.03
2022-07-29T16:01:25.022Z,99279.69
2022-07-29T16:03:54.256Z,99271.72
2022-07-29T16:06:23.413Z,99272.09
2022-07-29T16:08:52.026Z,99272.03
2022-07-29T16:11:21.035Z,99282.19
2022-07-29T16:13:49.617Z,99279.84
2022-07-29T16:16:21.406Z,99271.13
2022-07-29T16:18:50.129Z,99272.94
2022-07-29T16:21:18.995Z,99283.59
2022-07-29T16:23:47.650Z,99278.78
2022-07-29T16:26:16.667Z,99273.59
2022-07-29T16:28:48.208Z,99278.16
2022-07-29T16:31:18.126Z,99276.03
2022-07-29T16:33:54.885Z,99281.00
2022-07-29T16:36:24.517Z,99278.44
2022-07-29T16:38:53.292Z,99275.59
2022-07-29T16:41:22.009Z,99274.28
2022-07-29T16:43:50.676Z,99278.00
2022-07-29T16:46:19.490Z,99267.78
2022-07-29T16:48:50.397Z,99278.53
2022-07-29T16:51:19.255Z,99277.16
2022-07-29T16:53:50.346Z,99271.16
2022-07-29T16:56:19.293Z,99280.16
2022-07-29T16:58:47.880Z,99276.03
2022-07-29T17:01:17.144Z,99271.91
2022-07-29T17:04:00.427Z,99273.81
2022-07-29T17:06:32.895Z,99277.94
2022-07-29T17:09:02.245Z,99274.25
2022-07-29T17:11:53.799Z,99280.41
2022-07-29T17:14:23.398Z,99282.56
2022-07-29T17:17:02.400Z,99282.97
2022-07-29T17:19:33.751Z,99281.53
2022-07-29T17:22:15.666Z,99291.06
2022-07-29T17:24:47.858Z,99292.19
2022-07-29T17:27:16.895Z,99294.88
2022-07-29T17:29:45.847Z,99292.16
2022-07-29T17:32:15.185Z,99297.31
2022-07-29T17:34:44.404Z,99293.59
2022-07-29T17:37:16.062Z,99294.75
2022-07-29T17:39:45.395Z,99299.56
2022-07-29T17:42:15.071Z,99292.59
2022-07-29T17:44:43.687Z,99304.25
2022-07-29T17:47:16.409Z,99308.16
2022-07-29T17:49:45.689Z,99314.44
2022-07-29T17:52:17.890Z,99309.56
2022-07-29T17:54:48.532Z,99311.34
2022-07-29T17:57:17.164Z,99308.88
2022-07-29T17:59:45.713Z,99314.91
2022-07-29T18:02:14.712Z,99318.13
2022-07-29T18:04:43.574Z,99318.78
2022-07-29T18:07:12.568Z,99326.16
2022-07-29T18:09:42.596Z,99323.41
2022-07-29T18:12:11.480Z,99322.28
2022-07-29T18:14:40.253Z,99325.38
2022-07-29T18:17:08.909Z,99329.91
2022-07-29T18:19:37.493Z,99322.56
2022-07-29T18:22:07.360Z,99323.13
2022-07-29T18:24:35.918Z,99319.84
2022-07-29T18:27:05.980Z,99324.84
2022-07-29T18:29:34.664Z,99321.94
2022-07-29T18:32:03.569Z,99325.66
2022-07-29T18:34:32.192Z,99324.44
2022-07-29T18:37:01.092Z,99320.56
2022-07-29T18:39:30.013Z,99327.19
2022-07-29T18:41:58.598Z,99329.44
2022-07-29T18:44:28.779Z,99325.41
2022-07-29T18:46:58.455Z,99332.53
2022-07-29T18:49:27.529Z,99333.69
2022-07-29T18:51:56.807Z,99329.19
2022-07-29T18:54:25.383Z,99331.44
2022-07-29T18:56:54.404Z,99341.34
2022-07-29T18:59:23.131Z,99346.34
2022-07-29T19:01:53.188Z,99348.28
2022-07-29T19:04:21.919Z,99345.44
2022-07-29T19:06:50.590Z,99347.25
2022-07-29T19:09:19.404Z,99348.53
2022-07-29T19:11:49.513Z,99349.22
2022-07-29T19:14:20.098Z,99355.16
2022-07-29T19:16:51.081Z,99349.63
2022-07-29T19:19:21.166Z,99348.84
2022-07-29T19:21:49.745Z,99356.31
2022-07-29T19:24:18.399Z,99360.03
2022-07-29T19:26:47.604Z,99350.41
2022-07-29T19:29:17.391Z,99359.22
2022-07-29T19:31:46.217Z,99358.38
2022-07-29T19:34:14.883Z,99361.31
2022-07-29T19:36:44.942Z,99360.69
2022-07-29T19:39:15.310Z,99374.19
2022-07-29T19:41:44.170Z,99369.31
2022-07-29T19:44:12.835Z,99376.69
2022-07-29T19:46:41.582Z,99380.41
2022-07-29T19:49:10.997Z,99379.53
2022-07-29T19:51:39.595Z,99381.00
2022-07-29T19:54:09.647Z,99388.75
2022-07-29T19:56:40.079Z,99393.75
2022-07-29T19:59:10.963Z,99392.84
2022-07-29T20:01:41.231Z,99398.22
2022-07-29T20:04:10.080Z,99398.69
2022-07-29T20:06:38.763Z,99407.59
2022-07-29T20:09:07.482Z,99402.34
2022-07-29T20:11:46.927Z,99404.94
2022-07-29T20:14:16.811Z,99415.31
2022-07-29T20:16:46.776Z,99412.56
2022-07-29T20:19:15.622Z,99407.59
2022-07-29T20:21:45.228Z,99409.13
2022-07-29T20:24:13.939Z,99417.91
2022-07-29T20:26:42.543Z,99410.19
2022-07-29T20:29:12.540Z,99418.47
2022-07-29T20:31:43.191Z,99414.75
2022-07-29T20:34:14.187Z,99422.16
2022-07-29T20:36:42.773Z,99427.97
2022-07-29T20:39:11.670Z,99431.16
2022-07-29T20:41:40.322Z,99428.66
2022-07-29T20:44:09.396Z,99435.13
2022-07-29T20:46:40.255Z,99437.47
2022-07-29T20:49:09.226Z,99436.00
2022-07-29T20:51:43.718Z,99439.13
2022-07-29T20:54:12.838Z,99445.16
2022-07-29T20:56:41.690Z,99446.25
2022-07-29T20:59:11.115Z,99452.97
2022-07-29T21:01:41.376Z,99456.66
2022-07-29T21:04:11.513Z,99460.41
2022-07-29T21:06:40.467Z,99461.47
2022-07-29T21:09:09.140Z,99470.41
2022-07-29T21:11:44.453Z,99467.50
2022-07-29T21:14:21.745Z,99466.47
2022-07-29T21:16:52.171Z,99474.06
2022-07-29T21:19:20.845Z,99475.81
2022-07-29T21:21:49.474Z,99475.09
2022-07-29T21:24:18.094Z,99475.50
2022-07-29T21:26:54.489Z,99476.69
2022-07-29T21:29:32.597Z,99484.16
2022-07-29T21:32:02.605Z,99479.88
2022-07-29T21:34:31.243Z,99482.78
2022-07-29T21:36:59.983Z,99477.78
2022-07-29T21:39:29.135Z,99484.13
2022-07-29T21:41:57.845Z,99481.47
2022-07-29T21:44:26.592Z,99480.69
2022-07-29T21:46:55.257Z,99476.38
2022-07-29T21:49:25.294Z,99479.53
2022-07-29T21:51:54.098Z,99477.22
2022-07-29T21:54:22.982Z,99482.69
2022-07-29T21:56:52.705Z,99476.81
2022-07-29T21:59:21.411Z,99479.91
2022-07-29T22:01:50.013Z,99475.50
2022-07-29T22:04:18.855Z,99479.44
2022-07-29T22:06:49.563Z,99476.81
2022-07-29T22:09:18.142Z,99470.88
2022-07-29T22:11:47.782Z,99471.97
2022-07-29T22:14:18.308Z,99471.28
2022-07-29T22:16:48.331Z,99473.00
2022-07-29T22:19:17.441Z,99466.97
2022-07-29T22:21:47.229Z,99460.16
2022-07-29T22:24:17.171Z,99459.28
2022-07-29T22:26:45.848Z,99452.31
2022-07-29T22:29:17.600Z,99454.28
2022-07-29T22:31:46.273Z,99454.63
2022-07-29T22:34:15.136Z,99447.81
2022-07-29T22:36:43.775Z,99450.56
2022-07-29T22:39:15.487Z,99449.84
2022-07-29T22:41:45.791Z,99453.69
2022-07-29T22:44:14.378Z,99457.59
2022-07-29T22:46:43.026Z,99462.22
2022-07-29T22:49:11.785Z,99462.44
2022-07-29T22:51:40.505Z,99454.25
2022-07-29T22:54:09.039Z,99463.63
2022-07-29T22:56:37.640Z,99462.03
2022-07-29T22:59:07.763Z,99464.41
2022-07-29T23:01:37.586Z,99468.50
2022-07-29T23:04:07.255Z,99464.91
2022-07-29T23:06:35.895Z,99464.06
2022-07-29T23:09:04.938Z,99462.25
2022-07-29T23:11:33.610Z,99453.25
2022-07-29T23:14:02.360Z,99451.44
2022-07-29T23:16:32.966Z,99448.66
2022-07-29T23:19:01.810Z,99453.31
2022-07-29T23:21:30.495Z,99453.75
2022-07-29T23:23:59.049Z,99453.44
2022-07-29T23:26:28.122Z,99454.06
2022-07-29T23:28:56.700Z,99454.84
2022-07-29T23:31:25.340Z,99448.91
2022-07-29T23:33:55.316Z,99447.94
2022-07-29T23:36:24.045Z,99454.28
2022-07-29T23:38:52.827Z,99450.34
2022-07-29T23:41:21.647Z,99448.09
2022-07-29T23:43:50.253Z,99447.25
2022-07-29T23:46:18.905Z,99449.28
2022-07-29T23:48:52.825Z,99438.88
2022-07-29T23:51:22.852Z,99440.13
2022-07-29T23:53:53.374Z,99442.78
2022-07-29T23:56:22.853Z,99442.09
2022-07-29T23:58:51.571Z,99448.34
